sensor_id;sensor_type;location;lat;lon;timestamp;pressure;altitude;pressure_sealevel;temperature;humidity
53440;BME280;39333;47.044;15.080;2022-10-17T00:01:29;97303.06;;;11.49;70.13
53440;BME280;39333;47.044;15.080;2022-10-17T00:03:55;97300.63;;;11.48;70.63
53440;BME280;39333;47.044;15.080;2022-10-17T00:06:22;97307.25;;;11.57;70.11
53440;BME280;39333;47.044;15.080;2022-10-17T00:08:50;97302.16;;;11.55;69.84
53440;BME280;39333;47.044;15.080;2022-10-17T00:11:20;97302.97;;;11.56;69.62
53440;BME280;39333;47.044;15.080;2022-10-17T00:13:48;97301.81;;;11.52;69.58
53440;BME280;39333;47.044;15.080;2022-10-17T00:16:26;97305.94;;;11.48;69.69
53440;BME280;39333;47.044;15.080;2022-10-17T00:18:53;97307.84;;;11.41;70.13
53440;BME280;39333;47.044;15.080;2022-10-17T00:21:22;97318.75;;;11.33;70.47
53440;BME280;39333;47.044;15.080;2022-10-17T00:23:49;97317.25;;;11.37;69.88
53440;BME280;39333;47.044;15.080;2022-10-17T00:26:16;97319.84;;;11.25;70.26
53440;BME280;39333;47.044;15.080;2022-10-17T00:28:48;97311.94;;;11.37;70.27
53440;BME280;39333;47.044;15.080;2022-10-17T00:31:17;97311.91;;;11.43;70.07
53440;BME280;39333;47.044;15.080;2022-10-17T00:33:44;97316.00;;;11.39;69.67
53440;BME280;39333;47.044;15.080;2022-10-17T00:36:19;97303.78;;;11.38;69.75
53440;BME280;39333;47.044;15.080;2022-10-17T00:38:49;97311.59;;;11.33;69.78
53440;BME280;39333;47.044;15.080;2022-10-17T00:41:19;97307.91;;;11.34;69.72
53440;BME280;39333;47.044;15.080;2022-10-17T00:43:54;97307.47;;;11.19;69.83
53440;BME280;39333;47.044;15.080;2022-10-17T00:46:22;97309.72;;;11.15;70.10
53440;BME280;39333;47.044;15.080;2022-10-17T00:48:52;97306.88;;;11.17;69.86
53440;BME280;39333;47.044;15.080;2022-10-17T00:51:24;97308.91;;;11.15;69.66
53440;BME280;39333;47.044;15.080;2022-10-17T00:53:52;97294.53;;;10.79;70.60
53440;BME280;39333;47.044;15.080;2022-10-17T00:56:20;97307.28;;;10.71;71.00
53440;BME280;39333;47.044;15.080;2022-10-17T00:58:47;97296.28;;;10.67;71.16
53440;BME280;39333;47.044;15.080;2022-10-17T01:01:14;97304.06;;;10.62;72.13
53440;BME280;39333;47.044;15.080;2022-10-17T01:03:41;97297.72;;;10.63;72.46
53440;BME280;39333;47.044;15.080;2022-10-17T01:06:08;97297.22;;;10.73;71.87
53440;BME280;39333;47.044;15.080;2022-10-17T01:08:35;97292.31;;;10.76;71.72
53440;BME280;39333;47.044;15.080;2022-10-17T01:11:20;97299.41;;;10.82;70.69
53440;BME280;39333;47.044;15.080;2022-10-17T01:13:52;97295.31;;;10.86;70.90
53440;BME280;39333;47.044;15.080;2022-10-17T01:16:40;97293.28;;;10.82;70.50
53440;BME280;39333;47.044;15.080;2022-10-17T01:19:34;97296.28;;;10.67;71.17
53440;BME280;39333;47.044;15.080;2022-10-17T01:33:31;97301.63;;;10.61;71.21
53440;BME280;39333;47.044;15.080;2022-10-17T01:36:09;97299.06;;;10.72;70.78
53440;BME280;39333;47.044;15.080;2022-10-17T01:38:39;97292.91;;;10.78;70.40
53440;BME280;39333;47.044;15.080;2022-10-17T01:44:03;97288.41;;;10.79;70.32
53440;BME280;39333;47.044;15.080;2022-10-17T01:46:38;97298.63;;;10.75;69.92
53440;BME280;39333;47.044;15.080;2022-10-17T01:49:09;97290.47;;;10.52;70.00
53440;BME280;39333;47.044;15.080;2022-10-17T01:51:48;97289.38;;;10.35;71.28
53440;BME280;39333;47.044;15.080;2022-10-17T01:54:21;97292.34;;;10.45;70.79
53440;BME280;39333;47.044;15.080;2022-10-17T01:56:54;97294.75;;;10.53;70.74
53440;BME280;39333;47.044;15.080;2022-10-17T01:59:28;97297.72;;;10.63;70.24
53440;BME280;39333;47.044;15.080;2022-10-17T02:01:57;97293.97;;;10.46;69.71
53440;BME280;39333;47.044;15.080;2022-10-17T02:04:24;97289.91;;;10.43;70.48
53440;BME280;39333;47.044;15.080;2022-10-17T02:06:51;97289.47;;;10.46;70.29
53440;BME280;39333;47.044;15.080;2022-10-17T02:09:23;97294.06;;;10.33;70.36
53440;BME280;39333;47.044;15.080;2022-10-17T02:17:34;97297.00;;;10.11;72.08
53440;BME280;39333;47.044;15.080;2022-10-17T02:20:18;97296.16;;;10.17;71.64
53440;BME280;39333;47.044;15.080;2022-10-17T02:28:47;97298.06;;;10.42;70.81
53440;BME280;39333;47.044;15.080;2022-10-17T02:31:27;97292.03;;;10.35;70.52
53440;BME280;39333;47.044;15.080;2022-10-17T02:34:07;97299.38;;;10.33;70.89
53440;BME280;39333;47.044;15.080;2022-10-17T02:36:38;97296.13;;;10.31;70.15
53440;BME280;39333;47.044;15.080;2022-10-17T02:39:07;97292.69;;;10.24;70.47
53440;BME280;39333;47.044;15.080;2022-10-17T02:41:35;97294.28;;;10.31;70.02
53440;BME280;39333;47.044;15.080;2022-10-17T02:44:04;97300.38;;;10.32;69.91
53440;BME280;39333;47.044;15.080;2022-10-17T02:46:32;97297.56;;;10.27;69.80
53440;BME280;39333;47.044;15.080;2022-10-17T02:49:19;97302.66;;;10.28;70.13
53440;BME280;39333;47.044;15.080;2022-10-17T02:54:34;97300.63;;;10.24;69.95
53440;BME280;39333;47.044;15.080;2022-10-17T02:57:21;97306.97;;;10.23;70.18
53440;BME280;39333;47.044;15.080;2022-10-17T02:59:50;97305.56;;;10.20;70.26
53440;BME280;39333;47.044;15.080;2022-10-17T03:02:17;97311.34;;;9.97;70.27
53440;BME280;39333;47.044;15.080;2022-10-17T03:04:45;97312.31;;;9.65;71.73
53440;BME280;39333;47.044;15.080;2022-10-17T03:07:13;97307.81;;;9.59;71.65
53440;BME280;39333;47.044;15.080;2022-10-17T03:09:40;97313.72;;;9.74;71.84
53440;BME280;39333;47.044;15.080;2022-10-17T03:12:07;97314.28;;;9.82;71.07
53440;BME280;39333;47.044;15.080;2022-10-17T03:14:34;97317.94;;;9.88;70.54
53440;BME280;39333;47.044;15.080;2022-10-17T03:17:02;97318.47;;;9.97;71.12
53440;BME280;39333;47.044;15.080;2022-10-17T03:19:29;97312.59;;;9.95;70.90
53440;BME280;39333;47.044;15.080;2022-10-17T03:21:56;97318.28;;;9.98;71.10
53440;BME280;39333;47.044;15.080;2022-10-17T03:24:22;97316.22;;;10.00;70.57
53440;BME280;39333;47.044;15.080;2022-10-17T03:26:49;97321.56;;;9.94;70.28
53440;BME280;39333;47.044;15.080;2022-10-17T03:29:16;97323.03;;;9.83;70.50
53440;BME280;39333;47.044;15.080;2022-10-17T03:31:43;97320.03;;;9.66;70.83
53440;BME280;39333;47.044;15.080;2022-10-17T03:34:10;97323.72;;;9.59;72.06
53440;BME280;39333;47.044;15.080;2022-10-17T03:36:37;97328.00;;;9.60;71.65
53440;BME280;39333;47.044;15.080;2022-10-17T03:39:04;97321.06;;;9.59;71.98
53440;BME280;39333;47.044;15.080;2022-10-17T03:41:32;97327.16;;;9.72;71.76
53440;BME280;39333;47.044;15.080;2022-10-17T03:43:58;97326.13;;;9.73;71.64
53440;BME280;39333;47.044;15.080;2022-10-17T03:46:26;97323.34;;;9.55;72.41
53440;BME280;39333;47.044;15.080;2022-10-17T03:48:55;97321.31;;;9.51;72.66
53440;BME280;39333;47.044;15.080;2022-10-17T03:51:21;97324.53;;;9.59;71.90
53440;BME280;39333;47.044;15.080;2022-10-17T03:53:52;97320.44;;;9.70;71.59
53440;BME280;39333;47.044;15.080;2022-10-17T03:56:22;97326.16;;;9.67;70.76
53440;BME280;39333;47.044;15.080;2022-10-17T03:58:57;97328.22;;;9.52;71.28
53440;BME280;39333;47.044;15.080;2022-10-17T04:01:26;97331.44;;;9.67;71.40
53440;BME280;39333;47.044;15.080;2022-10-17T04:03:54;97336.94;;;9.72;70.95
53440;BME280;39333;47.044;15.080;2022-10-17T04:06:22;97332.91;;;9.56;70.90
53440;BME280;39333;47.044;15.080;2022-10-17T04:08:49;97336.34;;;9.63;70.29
53440;BME280;39333;47.044;15.080;2022-10-17T04:11:22;97331.06;;;9.57;70.71
53440;BME280;39333;47.044;15.080;2022-10-17T04:13:54;97332.06;;;9.62;70.73
53440;BME280;39333;47.044;15.080;2022-10-17T04:16:22;97340.84;;;9.56;70.27
53440;BME280;39333;47.044;15.080;2022-10-17T04:18:58;97338.81;;;9.45;70.56
53440;BME280;39333;47.044;15.080;2022-10-17T04:21:28;97340.03;;;9.42;70.89
53440;BME280;39333;47.044;15.080;2022-10-17T04:23:59;97342.53;;;9.37;70.94
53440;BME280;39333;47.044;15.080;2022-10-17T04:26:58;97348.81;;;9.50;70.56
53440;BME280;39333;47.044;15.080;2022-10-17T04:29:28;97345.78;;;9.39;71.06
53440;BME280;39333;47.044;15.080;2022-10-17T04:32:03;97353.88;;;9.51;70.78
53440;BME280;39333;47.044;15.080;2022-10-17T04:34:39;97350.03;;;9.54;70.49
53440;BME280;39333;47.044;15.080;2022-10-17T04:37:06;97346.16;;;9.56;70.42
53440;BME280;39333;47.044;15.080;2022-10-17T04:39:33;97350.19;;;9.59;70.15
53440;BME280;39333;47.044;15.080;2022-10-17T04:42:00;97351.44;;;9.56;69.90
53440;BME280;39333;47.044;15.080;2022-10-17T04:44:27;97355.13;;;9.42;69.87
53440;BME280;39333;47.044;15.080;2022-10-17T04:46:57;97354.97;;;9.24;70.24
53440;BME280;39333;47.044;15.080;2022-10-17T04:49:24;97357.22;;;9.00;71.67
53440;BME280;39333;47.044;15.080;2022-10-17T04:51:55;97365.75;;;8.83;72.27
53440;BME280;39333;47.044;15.080;2022-10-17T04:54:30;97369.81;;;8.78;72.93
53440;BME280;39333;47.044;15.080;2022-10-17T04:57:05;97370.44;;;8.87;72.70
53440;BME280;39333;47.044;15.080;2022-10-17T04:59:32;97375.72;;;8.94;71.91
53440;BME280;39333;47.044;15.080;2022-10-17T05:02:19;97377.75;;;9.11;71.93
53440;BME280;39333;47.044;15.080;2022-10-17T05:04:46;97373.69;;;9.16;71.24
53440;BME280;39333;47.044;15.080;2022-10-17T05:07:13;97382.84;;;9.13;71.20
53440;BME280;39333;47.044;15.080;2022-10-17T05:09:46;97373.50;;;9.04;71.17
53440;BME280;39333;47.044;15.080;2022-10-17T05:12:14;97372.47;;;9.11;71.30
53440;BME280;39333;47.044;15.080;2022-10-17T05:14:43;97380.00;;;9.15;70.69
53440;BME280;39333;47.044;15.080;2022-10-17T05:17:10;97384.06;;;9.17;71.13
53440;BME280;39333;47.044;15.080;2022-10-17T05:19:37;97383.44;;;9.15;70.80
53440;BME280;39333;47.044;15.080;2022-10-17T05:22:05;97381.00;;;9.20;71.01
53440;BME280;39333;47.044;15.080;2022-10-17T05:24:32;97391.81;;;9.05;71.70
53440;BME280;39333;47.044;15.080;2022-10-17T05:26:58;97380.00;;;9.01;71.85
53440;BME280;39333;47.044;15.080;2022-10-17T05:29:25;97392.44;;;9.07;71.49
53440;BME280;39333;47.044;15.080;2022-10-17T05:32:01;97381.63;;;9.09;71.37
53440;BME280;39333;47.044;15.080;2022-10-17T05:34:33;97384.88;;;9.11;70.79
53440;BME280;39333;47.044;15.080;2022-10-17T05:37:00;97388.13;;;9.00;71.23
53440;BME280;39333;47.044;15.080;2022-10-17T05:39:27;97394.66;;;9.04;71.21
53440;BME280;39333;47.044;15.080;2022-10-17T05:41:55;97393.63;;;8.92;70.83
53440;BME280;39333;47.044;15.080;2022-10-17T05:44:22;97403.59;;;8.90;71.27
53440;BME280;39333;47.044;15.080;2022-10-17T05:46:53;97399.94;;;8.91;71.32
53440;BME280;39333;47.044;15.080;2022-10-17T05:49:20;97404.00;;;8.93;71.44
53440;BME280;39333;47.044;15.080;2022-10-17T05:51:59;97407.06;;;8.97;71.36
53440;BME280;39333;47.044;15.080;2022-10-17T05:54:26;97406.03;;;8.98;71.73
53440;BME280;39333;47.044;15.080;2022-10-17T05:56:54;97408.91;;;9.03;71.44
53440;BME280;39333;47.044;15.080;2022-10-17T05:59:26;97404.81;;;9.20;71.51
53440;BME280;39333;47.044;15.080;2022-10-17T06:01:58;97399.94;;;9.37;70.85
53440;BME280;39333;47.044;15.080;2022-10-17T06:04:25;97406.84;;;9.51;70.43
53440;BME280;39333;47.044;15.080;2022-10-17T06:06:53;97418.22;;;9.71;69.69
53440;BME280;39333;47.044;15.080;2022-10-17T06:09:22;97410.84;;;9.87;70.20
53440;BME280;39333;47.044;15.080;2022-10-17T06:11:52;97414.66;;;10.04;69.79
53440;BME280;39333;47.044;15.080;2022-10-17T06:14:19;97418.50;;;10.21;69.50
53440;BME280;39333;47.044;15.080;2022-10-17T06:16:48;97421.22;;;10.46;69.50
53440;BME280;39333;47.044;15.080;2022-10-17T06:19:15;97425.03;;;10.57;68.98
53440;BME280;39333;47.044;15.080;2022-10-17T06:21:42;97427.66;;;10.63;68.38
53440;BME280;39333;47.044;15.080;2022-10-17T06:24:14;97431.53;;;10.67;68.99
53440;BME280;39333;47.044;15.080;2022-10-17T06:26:41;97434.94;;;10.74;69.41
53440;BME280;39333;47.044;15.080;2022-10-17T06:29:10;97434.94;;;10.74;68.84
53440;BME280;39333;47.044;15.080;2022-10-17T06:31:43;97437.78;;;10.79;69.06
53440;BME280;39333;47.044;15.080;2022-10-17T06:34:10;97442.25;;;10.85;69.56
53440;BME280;39333;47.044;15.080;2022-10-17T06:36:38;97441.44;;;10.85;71.01
53440;BME280;39333;47.044;15.080;2022-10-17T06:39:05;97436.72;;;10.87;71.08
53440;BME280;39333;47.044;15.080;2022-10-17T06:41:37;97445.03;;;10.97;71.49
53440;BME280;39333;47.044;15.080;2022-10-17T06:44:07;97450.28;;;11.04;71.18
53440;BME280;39333;47.044;15.080;2022-10-17T06:46:55;97449.78;;;11.20;72.70
53440;BME280;39333;47.044;15.080;2022-10-17T06:49:22;97458.22;;;11.35;73.81
53440;BME280;39333;47.044;15.080;2022-10-17T06:51:54;97451.50;;;11.57;72.19
53440;BME280;39333;47.044;15.080;2022-10-17T06:54:28;97454.75;;;11.84;71.93
53440;BME280;39333;47.044;15.080;2022-10-17T06:57:26;97462.59;;;12.16;73.15
53440;BME280;39333;47.044;15.080;2022-10-17T07:00:13;97456.97;;;12.42;72.60
53440;BME280;39333;47.044;15.080;2022-10-17T07:02:47;97465.66;;;12.68;71.99
53440;BME280;39333;47.044;15.080;2022-10-17T07:05:14;97469.31;;;12.85;72.17
53440;BME280;39333;47.044;15.080;2022-10-17T07:07:41;97471.13;;;13.03;71.22
53440;BME280;39333;47.044;15.080;2022-10-17T07:10:11;97466.78;;;13.20;70.10
53440;BME280;39333;47.044;15.080;2022-10-17T07:12:39;97467.53;;;13.39;69.83
53440;BME280;39333;47.044;15.080;2022-10-17T07:15:06;97469.22;;;13.63;69.65
53440;BME280;39333;47.044;15.080;2022-10-17T07:17:33;97469.66;;;13.83;69.79
53440;BME280;39333;47.044;15.080;2022-10-17T07:20:00;97476.84;;;14.06;69.47
53440;BME280;39333;47.044;15.080;2022-10-17T07:22:30;97472.44;;;14.23;69.04
53440;BME280;39333;47.044;15.080;2022-10-17T07:24:57;97475.56;;;14.44;69.66
53440;BME280;39333;47.044;15.080;2022-10-17T07:27:41;97469.66;;;14.70;68.83
53440;BME280;39333;47.044;15.080;2022-10-17T07:30:08;97470.94;;;14.96;68.18
53440;BME280;39333;47.044;15.080;2022-10-17T07:32:38;97466.56;;;15.18;67.73
53440;BME280;39333;47.044;15.080;2022-10-17T07:35:11;97473.31;;;15.37;67.74
53440;BME280;39333;47.044;15.080;2022-10-17T07:37:39;97473.47;;;15.48;65.81
53440;BME280;39333;47.044;15.080;2022-10-17T07:40:07;97477.56;;;15.67;66.81
53440;BME280;39333;47.044;15.080;2022-10-17T07:42:36;97479.16;;;15.85;65.97
53440;BME280;39333;47.044;15.080;2022-10-17T07:45:09;97480.19;;;16.00;64.99
53440;BME280;39333;47.044;15.080;2022-10-17T07:47:36;97480.16;;;16.17;65.12
53440;BME280;39333;47.044;15.080;2022-10-17T07:50:06;97473.78;;;16.18;64.05
53440;BME280;39333;47.044;15.080;2022-10-17T07:52:33;97480.47;;;16.37;64.49
53440;BME280;39333;47.044;15.080;2022-10-17T07:54:59;97479.06;;;16.57;65.51
53440;BME280;39333;47.044;15.080;2022-10-17T07:57:26;97483.91;;;16.76;64.37
53440;BME280;39333;47.044;15.080;2022-10-17T07:59:53;97481.63;;;16.90;64.10
53440;BME280;39333;47.044;15.080;2022-10-17T08:02:24;97489.41;;;17.13;64.19
53440;BME280;39333;47.044;15.080;2022-10-17T08:04:52;97494.09;;;17.28;61.88
53440;BME280;39333;47.044;15.080;2022-10-17T08:07:19;97486.81;;;16.97;62.02
53440;BME280;39333;47.044;15.080;2022-10-17T08:09:53;97482.34;;;17.07;63.32
53440;BME280;39333;47.044;15.080;2022-10-17T08:12:20;97488.81;;;16.63;63.71
53440;BME280;39333;47.044;15.080;2022-10-17T08:14:47;97486.00;;;16.96;63.06
53440;BME280;39333;47.044;15.080;2022-10-17T08:17:14;97486.63;;;17.30;62.41
53440;BME280;39333;47.044;15.080;2022-10-17T08:19:41;97498.31;;;17.78;62.58
53440;BME280;39333;47.044;15.080;2022-10-17T08:22:08;97499.13;;;18.15;61.64
53440;BME280;39333;47.044;15.080;2022-10-17T08:24:34;97492.53;;;18.33;60.24
53440;BME280;39333;47.044;15.080;2022-10-17T08:27:01;97497.16;;;18.53;59.70
53440;BME280;39333;47.044;15.080;2022-10-17T08:29:29;97506.75;;;18.81;59.99
53440;BME280;39333;47.044;15.080;2022-10-17T08:31:58;97494.97;;;18.97;57.82
53440;BME280;39333;47.044;15.080;2022-10-17T08:34:26;97499.00;;;19.00;56.67
53440;BME280;39333;47.044;15.080;2022-10-17T08:36:53;97495.03;;;19.28;56.18
53440;BME280;39333;47.044;15.080;2022-10-17T08:39:20;97488.88;;;19.37;56.03
53440;BME280;39333;47.044;15.080;2022-10-17T08:42:05;97490.00;;;19.72;55.99
53440;BME280;39333;47.044;15.080;2022-10-17T08:45:06;97489.47;;;19.80;55.59
53440;BME280;39333;47.044;15.080;2022-10-17T08:47:43;97491.84;;;20.07;55.26
53440;BME280;39333;47.044;15.080;2022-10-17T08:50:20;97494.75;;;20.36;55.59
53440;BME280;39333;47.044;15.080;2022-10-17T08:52:56;97497.16;;;20.57;54.47
53440;BME280;39333;47.044;15.080;2022-10-17T08:55:32;97501.13;;;20.75;55.15
53440;BME280;39333;47.044;15.080;2022-10-17T08:58:23;97498.69;;;20.79;54.73
53440;BME280;39333;47.044;15.080;2022-10-17T09:03:32;97500.16;;;21.10;53.93
53440;BME280;39333;47.044;15.080;2022-10-17T09:16:58;97492.00;;;21.64;51.89
53440;BME280;39333;47.044;15.080;2022-10-17T09:19:32;97496.72;;;21.44;50.96
53440;BME280;39333;47.044;15.080;2022-10-17T09:22:07;97486.91;;;21.19;51.59
53440;BME280;39333;47.044;15.080;2022-10-17T09:24:51;97490.66;;;21.18;52.67
53440;BME280;39333;47.044;15.080;2022-10-17T09:27:30;97500.13;;;21.59;52.77
53440;BME280;39333;47.044;15.080;2022-10-17T09:30:16;97492.94;;;21.84;51.68
53440;BME280;39333;47.044;15.080;2022-10-17T09:33:27;97489.66;;;21.09;51.40
53440;BME280;39333;47.044;15.080;2022-10-17T09:36:41;97486.47;;;21.46;53.32
53440;BME280;39333;47.044;15.080;2022-10-17T09:39:18;97491.81;;;21.90;51.11
53440;BME280;39333;47.044;15.080;2022-10-17T09:41:49;97498.56;;;21.87;48.89
53440;BME280;39333;47.044;15.080;2022-10-17T09:44:22;97495.81;;;21.92;51.75
53440;BME280;39333;47.044;15.080;2022-10-17T09:49:27;97484.69;;;22.28;51.28
53440;BME280;39333;47.044;15.080;2022-10-17T09:51:55;97491.34;;;22.64;49.94
53440;BME280;39333;47.044;15.080;2022-10-17T09:55:26;97484.53;;;22.91;51.02
53440;BME280;39333;47.044;15.080;2022-10-17T09:57:20;97481.28;;;23.31;49.52
53440;BME280;39333;47.044;15.080;2022-10-17T10:00:03;97483.78;;;23.28;48.18
53440;BME280;39333;47.044;15.080;2022-10-17T10:02:39;97481.91;;;22.86;47.70
53440;BME280;39333;47.044;15.080;2022-10-17T10:05:17;97487.88;;;22.35;50.91
53440;BME280;39333;47.044;15.080;2022-10-17T10:08:01;97488.44;;;22.32;50.76
53440;BME280;39333;47.044;15.080;2022-10-17T10:10:29;97478.41;;;22.85;53.80
53440;BME280;39333;47.044;15.080;2022-10-17T10:13:06;97489.19;;;23.28;50.68
53440;BME280;39333;47.044;15.080;2022-10-17T10:15:48;97479.94;;;23.53;52.06
53440;BME280;39333;47.044;15.080;2022-10-17T10:18:29;97481.72;;;23.57;49.41
53440;BME280;39333;47.044;15.080;2022-10-17T10:23:37;97479.16;;;23.28;49.19
53440;BME280;39333;47.044;15.080;2022-10-17T10:26:25;97482.53;;;23.58;47.77
53440;BME280;39333;47.044;15.080;2022-10-17T10:28:59;97486.25;;;23.81;48.82
53440;BME280;39333;47.044;15.080;2022-10-17T10:31:36;97486.09;;;24.04;49.25
53440;BME280;39333;47.044;15.080;2022-10-17T10:41:58;97476.53;;;24.39;51.43
53440;BME280;39333;47.044;15.080;2022-10-17T10:44:28;97473.16;;;24.34;45.99
53440;BME280;39333;47.044;15.080;2022-10-17T10:47:18;97475.50;;;23.89;46.80
53440;BME280;39333;47.044;15.080;2022-10-17T10:49:45;97473.97;;;24.02;49.23
53440;BME280;39333;47.044;15.080;2022-10-17T10:52:19;97472.72;;;23.94;53.33
53440;BME280;39333;47.044;15.080;2022-10-17T10:54:55;97465.50;;;24.36;51.06
53440;BME280;39333;47.044;15.080;2022-10-17T10:57:28;97468.22;;;24.50;53.90
53440;BME280;39333;47.044;15.080;2022-10-17T11:00:03;97470.63;;;24.05;47.92
53440;BME280;39333;47.044;15.080;2022-10-17T11:03:24;97469.59;;;23.55;49.53
53440;BME280;39333;47.044;15.080;2022-10-17T11:05:55;97464.72;;;22.77;52.06
53440;BME280;39333;47.044;15.080;2022-10-17T11:08:39;97462.00;;;22.29;51.15
53440;BME280;39333;47.044;15.080;2022-10-17T11:13:57;97467.81;;;23.64;57.67
53440;BME280;39333;47.044;15.080;2022-10-17T11:16:36;97469.00;;;24.36;56.68
53440;BME280;39333;47.044;15.080;2022-10-17T11:19:23;97469.59;;;24.88;53.49
53440;BME280;39333;47.044;15.080;2022-10-17T11:24:27;97465.47;;;24.91;51.59
53440;BME280;39333;47.044;15.080;2022-10-17T11:26:59;97471.50;;;25.15;50.74
53440;BME280;39333;47.044;15.080;2022-10-17T11:29:29;97467.50;;;25.13;52.12
53440;BME280;39333;47.044;15.080;2022-10-17T11:32:00;97468.53;;;24.48;46.55
53440;BME280;39333;47.044;15.080;2022-10-17T11:34:32;97466.91;;;24.61;53.18
53440;BME280;39333;47.044;15.080;2022-10-17T11:37:09;97463.28;;;24.93;51.40
53440;BME280;39333;47.044;15.080;2022-10-17T11:42:08;97463.22;;;24.11;49.20
53440;BME280;39333;47.044;15.080;2022-10-17T11:44:38;97467.09;;;24.78;50.19
53440;BME280;39333;47.044;15.080;2022-10-17T11:47:25;97471.00;;;24.86;51.44
53440;BME280;39333;47.044;15.080;2022-10-17T11:50:03;97463.56;;;24.91;49.35
53440;BME280;39333;47.044;15.080;2022-10-17T11:52:55;97464.06;;;25.07;50.83
53440;BME280;39333;47.044;15.080;2022-10-17T11:55:28;97469.31;;;24.76;45.69
53440;BME280;39333;47.044;15.080;2022-10-17T11:58:27;97465.97;;;25.06;54.16
53440;BME280;39333;47.044;15.080;2022-10-17T12:09:09;97459.06;;;26.03;51.68
53440;BME280;39333;47.044;15.080;2022-10-17T12:11:56;97453.22;;;26.19;50.75
53440;BME280;39333;47.044;15.080;2022-10-17T12:17:20;97461.63;;;26.31;49.74
53440;BME280;39333;47.044;15.080;2022-10-17T12:19:48;97458.19;;;25.63;45.86
53440;BME280;39333;47.044;15.080;2022-10-17T12:22:19;97467.00;;;25.91;48.76
53440;BME280;39333;47.044;15.080;2022-10-17T12:25:17;97458.94;;;26.08;51.64
53440;BME280;39333;47.044;15.080;2022-10-17T12:27:45;97449.22;;;26.47;48.31
53440;BME280;39333;47.044;15.080;2022-10-17T12:30:22;97454.03;;;26.50;45.11
53440;BME280;39333;47.044;15.080;2022-10-17T12:35:35;97456.25;;;24.78;45.58
53440;BME280;39333;47.044;15.080;2022-10-17T12:38:12;97453.72;;;24.13;49.23
53440;BME280;39333;47.044;15.080;2022-10-17T12:54:11;97453.22;;;26.19;45.45
53440;BME280;39333;47.044;15.080;2022-10-17T12:56:44;97455.25;;;26.35;50.29
53440;BME280;39333;47.044;15.080;2022-10-17T12:59:24;97454.72;;;26.64;48.84
53440;BME280;39333;47.044;15.080;2022-10-17T13:01:55;97443.16;;;26.19;44.17
53440;BME280;39333;47.044;15.080;2022-10-17T13:04:23;97446.84;;;26.54;47.20
53440;BME280;39333;47.044;15.080;2022-10-17T13:06:52;97450.91;;;26.74;44.85
53440;BME280;39333;47.044;15.080;2022-10-17T13:09:25;97448.41;;;26.38;49.09
53440;BME280;39333;47.044;15.080;2022-10-17T13:11:53;97450.69;;;26.53;49.60
53440;BME280;39333;47.044;15.080;2022-10-17T13:14:21;97448.84;;;26.79;48.53
53440;BME280;39333;47.044;15.080;2022-10-17T13:16:55;97448.41;;;26.46;46.73
53440;BME280;39333;47.044;15.080;2022-10-17T13:19:51;97449.41;;;26.51;47.54
53440;BME280;39333;47.044;15.080;2022-10-17T13:22:25;97450.38;;;26.24;47.54
53440;BME280;39333;47.044;15.080;2022-10-17T13:25:22;97453.28;;;26.58;50.13
53440;BME280;39333;47.044;15.080;2022-10-17T13:27:50;97443.56;;;26.74;46.24
53440;BME280;39333;47.044;15.080;2022-10-17T13:30:30;97447.59;;;26.06;46.75
53440;BME280;39333;47.044;15.080;2022-10-17T13:32:59;97448.19;;;26.03;48.88
53440;BME280;39333;47.044;15.080;2022-10-17T13:35:29;97442.84;;;26.43;49.56
53440;BME280;39333;47.044;15.080;2022-10-17T13:38:16;97445.66;;;26.77;49.90
53440;BME280;39333;47.044;15.080;2022-10-17T13:40:48;97442.13;;;26.86;48.77
53440;BME280;39333;47.044;15.080;2022-10-17T13:43:19;97448.66;;;26.67;45.86
53440;BME280;39333;47.044;15.080;2022-10-17T13:45:49;97446.88;;;25.70;46.46
53440;BME280;39333;47.044;15.080;2022-10-17T13:48:19;97446.94;;;25.20;52.67
53440;BME280;39333;47.044;15.080;2022-10-17T13:50:49;97456.72;;;25.79;49.91
53440;BME280;39333;47.044;15.080;2022-10-17T13:53:33;97456.22;;;26.08;49.78
53440;BME280;39333;47.044;15.080;2022-10-17T13:58:57;97465.91;;;25.70;49.79
53440;BME280;39333;47.044;15.080;2022-10-17T14:01:26;97460.16;;;25.35;49.77
53440;BME280;39333;47.044;15.080;2022-10-17T14:03:54;97460.19;;;25.58;50.85
53440;BME280;39333;47.044;15.080;2022-10-17T14:06:42;97466.78;;;25.43;51.00
53440;BME280;39333;47.044;15.080;2022-10-17T14:09:28;97466.66;;;25.62;51.85
53440;BME280;39333;47.044;15.080;2022-10-17T14:14:27;97468.00;;;25.95;49.65
53440;BME280;39333;47.044;15.080;2022-10-17T14:17:16;97469.91;;;25.95;48.90
53440;BME280;39333;47.044;15.080;2022-10-17T14:19:51;97469.31;;;25.75;51.03
53440;BME280;39333;47.044;15.080;2022-10-17T14:22:38;97473.16;;;25.83;50.23
53440;BME280;39333;47.044;15.080;2022-10-17T14:25:25;97473.34;;;25.87;48.38
53440;BME280;39333;47.044;15.080;2022-10-17T14:27:54;97473.44;;;25.95;48.62
53440;BME280;39333;47.044;15.080;2022-10-17T14:33:32;97478.91;;;25.82;49.64
53440;BME280;39333;47.044;15.080;2022-10-17T14:36:04;97481.88;;;25.71;50.90
53440;BME280;39333;47.044;15.080;2022-10-17T14:38:30;97477.22;;;25.63;49.33
53440;BME280;39333;47.044;15.080;2022-10-17T14:41:00;97476.09;;;25.51;50.58
53440;BME280;39333;47.044;15.080;2022-10-17T14:43:55;97476.69;;;25.61;50.90
53440;BME280;39333;47.044;15.080;2022-10-17T14:46:22;97473.47;;;25.59;50.40
53440;BME280;39333;47.044;15.080;2022-10-17T14:49:03;97473.03;;;25.43;50.68
53440;BME280;39333;47.044;15.080;2022-10-17T14:51:30;97475.31;;;25.14;51.31
53440;BME280;39333;47.044;15.080;2022-10-17T14:54:22;97469.72;;;24.97;51.35
53440;BME280;39333;47.044;15.080;2022-10-17T14:56:52;97473.31;;;24.92;50.79
53440;BME280;39333;47.044;15.080;2022-10-17T14:59:19;97470.34;;;24.66;51.08
53440;BME280;39333;47.044;15.080;2022-10-17T15:02:09;97476.38;;;24.63;52.44